sensor_id;sensor_type;location;lat;lon;timestamp;P1;durP1;ratioP1;P2;durP2;ratioP2
48847;SDS011;36611;51.638;5.784;2022-12-18T00:01:17;57.83;;;29.33;;
48847;SDS011;36611;51.638;5.784;2022-12-18T00:03:46;53.00;;;28.27;;
48847;SDS011;36611;51.638;5.784;2022-12-18T00:06:13;57.40;;;29.65;;
48847;SDS011;36611;51.638;5.784;2022-12-18T00:08:41;56.00;;;29.15;;
48847;SDS011;36611;51.638;5.784;2022-12-18T00:11:10;56.13;;;28.35;;
48847;SDS011;36611;51.638;5.784;2022-12-18T00:13:42;56.63;;;29.02;;
48847;SDS011;36611;51.638;5.784;2022-12-18T00:16:09;52.22;;;29.45;;
48847;SDS011;36611;51.638;5.784;2022-12-18T00:18:41;48.83;;;27.38;;
48847;SDS011;36611;51.638;5.784;2022-12-18T00:21:09;54.88;;;27.77;;
48847;SDS011;36611;51.638;5.784;2022-12-18T00:23:37;57.95;;;28.10;;
48847;SDS011;36611;51.638;5.784;2022-12-18T00:26:06;51.10;;;26.92;;
48847;SDS011;36611;51.638;5.784;2022-12-18T00:28:36;48.85;;;26.73;;
48847;SDS011;36611;51.638;5.784;2022-12-18T00:31:03;48.95;;;27.67;;
48847;SDS011;36611;51.638;5.784;2022-12-18T00:33:31;50.88;;;26.77;;
48847;SDS011;36611;51.638;5.784;2022-12-18T00:36:02;49.22;;;27.17;;
48847;SDS011;36611;51.638;5.784;2022-12-18T00:40:57;47.50;;;26.90;;
48847;SDS011;36611;51.638;5.784;2022-12-18T00:43:24;50.70;;;27.27;;
48847;SDS011;36611;51.638;5.784;2022-12-18T00:45:51;48.95;;;27.20;;
48847;SDS011;36611;51.638;5.784;2022-12-18T00:48:18;49.10;;;25.98;;
48847;SDS011;36611;51.638;5.784;2022-12-18T00:50:45;49.20;;;25.65;;
48847;SDS011;36611;51.638;5.784;2022-12-18T00:53:13;49.90;;;27.25;;
48847;SDS011;36611;51.638;5.784;2022-12-18T00:55:40;48.30;;;25.55;;
48847;SDS011;36611;51.638;5.784;2022-12-18T00:58:07;44.28;;;26.40;;
48847;SDS011;36611;51.638;5.784;2022-12-18T01:00:35;49.92;;;26.92;;
48847;SDS011;36611;51.638;5.784;2022-12-18T01:03:02;48.28;;;25.92;;
48847;SDS011;36611;51.638;5.784;2022-12-18T01:05:29;49.72;;;26.08;;
48847;SDS011;36611;51.638;5.784;2022-12-18T01:07:56;44.58;;;24.38;;
48847;SDS011;36611;51.638;5.784;2022-12-18T01:10:23;47.03;;;25.90;;
48847;SDS011;36611;51.638;5.784;2022-12-18T01:12:50;45.72;;;25.58;;
48847;SDS011;36611;51.638;5.784;2022-12-18T01:15:17;46.05;;;26.40;;
48847;SDS011;36611;51.638;5.784;2022-12-18T01:17:44;46.75;;;26.20;;
48847;SDS011;36611;51.638;5.784;2022-12-18T01:20:11;46.35;;;25.85;;
48847;SDS011;36611;51.638;5.784;2022-12-18T01:22:38;43.42;;;25.50;;
48847;SDS011;36611;51.638;5.784;2022-12-18T01:25:06;43.45;;;24.13;;
48847;SDS011;36611;51.638;5.784;2022-12-18T01:27:33;48.88;;;24.85;;
48847;SDS011;36611;51.638;5.784;2022-12-18T01:30:02;42.67;;;25.02;;
48847;SDS011;36611;51.638;5.784;2022-12-18T01:32:30;42.00;;;23.38;;
48847;SDS011;36611;51.638;5.784;2022-12-18T01:34:57;43.03;;;23.10;;
48847;SDS011;36611;51.638;5.784;2022-12-18T01:37:26;44.72;;;23.48;;
48847;SDS011;36611;51.638;5.784;2022-12-18T01:39:52;40.47;;;22.48;;
48847;SDS011;36611;51.638;5.784;2022-12-18T01:42:21;41.40;;;23.02;;
48847;SDS011;36611;51.638;5.784;2022-12-18T01:50:02;40.33;;;24.23;;
48847;SDS011;36611;51.638;5.784;2022-12-18T01:52:47;43.30;;;23.67;;
48847;SDS011;36611;51.638;5.784;2022-12-18T01:55:17;42.13;;;22.98;;
48847;SDS011;36611;51.638;5.784;2022-12-18T01:57:46;40.83;;;23.73;;
48847;SDS011;36611;51.638;5.784;2022-12-18T02:00:14;41.22;;;23.35;;
48847;SDS011;36611;51.638;5.784;2022-12-18T02:02:43;42.92;;;23.45;;
48847;SDS011;36611;51.638;5.784;2022-12-18T02:05:13;36.05;;;22.27;;
48847;SDS011;36611;51.638;5.784;2022-12-18T02:08:06;43.83;;;21.95;;
48847;SDS011;36611;51.638;5.784;2022-12-18T02:19:04;38.10;;;21.63;;
48847;SDS011;36611;51.638;5.784;2022-12-18T02:21:43;35.22;;;18.95;;
48847;SDS011;36611;51.638;5.784;2022-12-18T02:24:47;33.85;;;19.73;;
48847;SDS011;36611;51.638;5.784;2022-12-18T02:27:17;33.28;;;19.92;;
48847;SDS011;36611;51.638;5.784;2022-12-18T02:29:51;34.35;;;19.77;;
48847;SDS011;36611;51.638;5.784;2022-12-18T02:32:27;36.70;;;19.50;;
48847;SDS011;36611;51.638;5.784;2022-12-18T02:34:59;33.25;;;20.13;;
48847;SDS011;36611;51.638;5.784;2022-12-18T02:37:28;31.95;;;18.77;;
48847;SDS011;36611;51.638;5.784;2022-12-18T02:40:00;32.30;;;19.23;;
48847;SDS011;36611;51.638;5.784;2022-12-18T02:42:31;33.25;;;18.95;;
48847;SDS011;36611;51.638;5.784;2022-12-18T02:44:59;32.55;;;19.45;;
48847;SDS011;36611;51.638;5.784;2022-12-18T02:47:31;33.28;;;19.65;;
48847;SDS011;36611;51.638;5.784;2022-12-18T02:50:13;35.53;;;19.63;;
48847;SDS011;36611;51.638;5.784;2022-12-18T02:53:02;30.70;;;18.25;;
48847;SDS011;36611;51.638;5.784;2022-12-18T02:58:34;34.95;;;19.02;;
48847;SDS011;36611;51.638;5.784;2022-12-18T03:02:15;30.70;;;17.15;;
48847;SDS011;36611;51.638;5.784;2022-12-18T03:04:12;30.50;;;17.02;;
48847;SDS011;36611;51.638;5.784;2022-12-18T03:06:48;32.35;;;18.98;;
48847;SDS011;36611;51.638;5.784;2022-12-18T03:09:21;31.70;;;17.15;;
48847;SDS011;36611;51.638;5.784;2022-12-18T03:11:56;30.63;;;17.88;;
48847;SDS011;36611;51.638;5.784;2022-12-18T03:14:46;27.45;;;17.27;;
48847;SDS011;36611;51.638;5.784;2022-12-18T03:17:26;33.58;;;18.98;;
48847;SDS011;36611;51.638;5.784;2022-12-18T03:19:56;30.90;;;18.83;;
48847;SDS011;36611;51.638;5.784;2022-12-18T03:22:30;27.98;;;17.35;;
48847;SDS011;36611;51.638;5.784;2022-12-18T03:25:00;32.00;;;18.27;;
48847;SDS011;36611;51.638;5.784;2022-12-18T03:27:29;33.75;;;16.98;;
48847;SDS011;36611;51.638;5.784;2022-12-18T03:30:06;31.02;;;18.08;;
48847;SDS011;36611;51.638;5.784;2022-12-18T03:32:42;30.50;;;17.60;;
48847;SDS011;36611;51.638;5.784;2022-12-18T03:35:11;26.85;;;17.13;;
48847;SDS011;36611;51.638;5.784;2022-12-18T03:37:41;29.58;;;18.42;;
48847;SDS011;36611;51.638;5.784;2022-12-18T03:40:07;28.42;;;16.63;;
48847;SDS011;36611;51.638;5.784;2022-12-18T03:42:42;27.85;;;16.33;;
48847;SDS011;36611;51.638;5.784;2022-12-18T03:45:20;29.48;;;16.35;;
48847;SDS011;36611;51.638;5.784;2022-12-18T03:55:49;29.55;;;15.65;;
48847;SDS011;36611;51.638;5.784;2022-12-18T03:58:19;30.70;;;16.73;;
48847;SDS011;36611;51.638;5.784;2022-12-18T04:01:09;28.08;;;16.58;;
48847;SDS011;36611;51.638;5.784;2022-12-18T04:03:39;30.98;;;16.33;;
48847;SDS011;36611;51.638;5.784;2022-12-18T04:06:10;28.63;;;15.50;;
48847;SDS011;36611;51.638;5.784;2022-12-18T04:08:39;24.60;;;14.60;;
48847;SDS011;36611;51.638;5.784;2022-12-18T04:11:10;27.45;;;16.52;;
48847;SDS011;36611;51.638;5.784;2022-12-18T04:13:38;27.80;;;16.77;;
48847;SDS011;36611;51.638;5.784;2022-12-18T04:16:10;23.20;;;15.30;;
48847;SDS011;36611;51.638;5.784;2022-12-18T04:18:40;26.88;;;15.20;;
48847;SDS011;36611;51.638;5.784;2022-12-18T04:21:07;25.10;;;15.25;;
48847;SDS011;36611;51.638;5.784;2022-12-18T04:23:35;27.95;;;15.88;;
48847;SDS011;36611;51.638;5.784;2022-12-18T04:26:02;24.80;;;15.30;;
48847;SDS011;36611;51.638;5.784;2022-12-18T04:28:44;26.02;;;14.85;;
48847;SDS011;36611;51.638;5.784;2022-12-18T04:31:11;24.95;;;15.05;;
48847;SDS011;36611;51.638;5.784;2022-12-18T04:33:38;26.30;;;14.75;;
48847;SDS011;36611;51.638;5.784;2022-12-18T04:36:06;24.60;;;15.35;;
48847;SDS011;36611;51.638;5.784;2022-12-18T04:38:33;23.38;;;14.98;;
48847;SDS011;36611;51.638;5.784;2022-12-18T04:41:07;26.02;;;15.52;;
48847;SDS011;36611;51.638;5.784;2022-12-18T04:43:35;23.50;;;15.02;;
48847;SDS011;36611;51.638;5.784;2022-12-18T04:46:03;24.15;;;15.00;;
48847;SDS011;36611;51.638;5.784;2022-12-18T04:48:33;23.80;;;15.77;;
48847;SDS011;36611;51.638;5.784;2022-12-18T04:51:01;24.98;;;15.98;;
48847;SDS011;36611;51.638;5.784;2022-12-18T04:53:28;23.83;;;15.50;;
48847;SDS011;36611;51.638;5.784;2022-12-18T04:56:02;25.50;;;15.13;;
48847;SDS011;36611;51.638;5.784;2022-12-18T04:58:33;25.40;;;15.68;;
48847;SDS011;36611;51.638;5.784;2022-12-18T05:00:59;25.33;;;14.75;;
48847;SDS011;36611;51.638;5.784;2022-12-18T05:03:26;25.88;;;15.63;;
48847;SDS011;36611;51.638;5.784;2022-12-18T05:05:52;24.10;;;15.32;;
48847;SDS011;36611;51.638;5.784;2022-12-18T05:08:19;25.63;;;16.08;;
48847;SDS011;36611;51.638;5.784;2022-12-18T05:10:46;24.60;;;14.68;;
48847;SDS011;36611;51.638;5.784;2022-12-18T05:13:12;25.50;;;14.98;;
48847;SDS011;36611;51.638;5.784;2022-12-18T05:15:39;27.40;;;15.88;;
48847;SDS011;36611;51.638;5.784;2022-12-18T05:18:05;23.70;;;14.65;;
48847;SDS011;36611;51.638;5.784;2022-12-18T05:20:32;26.98;;;16.27;;
48847;SDS011;36611;51.638;5.784;2022-12-18T05:22:59;25.25;;;14.45;;
48847;SDS011;36611;51.638;5.784;2022-12-18T05:25:26;24.05;;;14.80;;
48847;SDS011;36611;51.638;5.784;2022-12-18T05:27:52;25.73;;;15.63;;
48847;SDS011;36611;51.638;5.784;2022-12-18T05:30:19;27.40;;;15.85;;
48847;SDS011;36611;51.638;5.784;2022-12-18T05:32:45;21.10;;;14.40;;
48847;SDS011;36611;51.638;5.784;2022-12-18T05:35:12;25.08;;;14.00;;
48847;SDS011;36611;51.638;5.784;2022-12-18T05:37:39;24.05;;;16.20;;
48847;SDS011;36611;51.638;5.784;2022-12-18T05:40:08;22.58;;;15.30;;
48847;SDS011;36611;51.638;5.784;2022-12-18T05:42:36;23.65;;;14.60;;
48847;SDS011;36611;51.638;5.784;2022-12-18T05:45:03;23.17;;;14.35;;
48847;SDS011;36611;51.638;5.784;2022-12-18T05:47:30;25.08;;;14.77;;
48847;SDS011;36611;51.638;5.784;2022-12-18T05:49:57;25.00;;;15.27;;
48847;SDS011;36611;51.638;5.784;2022-12-18T05:52:23;22.02;;;14.23;;
48847;SDS011;36611;51.638;5.784;2022-12-18T05:54:50;23.83;;;15.80;;
48847;SDS011;36611;51.638;5.784;2022-12-18T05:57:16;24.35;;;15.55;;
48847;SDS011;36611;51.638;5.784;2022-12-18T05:59:43;22.02;;;14.27;;
48847;SDS011;36611;51.638;5.784;2022-12-18T06:02:09;23.77;;;15.27;;
48847;SDS011;36611;51.638;5.784;2022-12-18T06:04:36;23.27;;;14.60;;
48847;SDS011;36611;51.638;5.784;2022-12-18T06:07:03;28.20;;;15.45;;
48847;SDS011;36611;51.638;5.784;2022-12-18T06:09:29;24.25;;;14.82;;
48847;SDS011;36611;51.638;5.784;2022-12-18T06:11:56;25.92;;;15.13;;
48847;SDS011;36611;51.638;5.784;2022-12-18T06:14:22;24.73;;;15.02;;
48847;SDS011;36611;51.638;5.784;2022-12-18T06:16:50;20.88;;;15.50;;
48847;SDS011;36611;51.638;5.784;2022-12-18T06:19:18;24.15;;;14.55;;
48847;SDS011;36611;51.638;5.784;2022-12-18T06:21:44;27.30;;;15.73;;
48847;SDS011;36611;51.638;5.784;2022-12-18T06:24:11;23.30;;;14.38;;
48847;SDS011;36611;51.638;5.784;2022-12-18T06:26:38;27.58;;;15.32;;
48847;SDS011;36611;51.638;5.784;2022-12-18T06:29:05;23.55;;;14.93;;
48847;SDS011;36611;51.638;5.784;2022-12-18T06:31:32;26.30;;;15.02;;
48847;SDS011;36611;51.638;5.784;2022-12-18T06:34:01;24.63;;;15.15;;
48847;SDS011;36611;51.638;5.784;2022-12-18T06:36:29;26.25;;;15.52;;
48847;SDS011;36611;51.638;5.784;2022-12-18T06:38:56;22.45;;;15.05;;
48847;SDS011;36611;51.638;5.784;2022-12-18T06:41:23;26.45;;;14.77;;
48847;SDS011;36611;51.638;5.784;2022-12-18T06:43:50;25.17;;;14.70;;
48847;SDS011;36611;51.638;5.784;2022-12-18T06:46:23;23.23;;;14.48;;
48847;SDS011;36611;51.638;5.784;2022-12-18T06:48:50;22.75;;;14.18;;
48847;SDS011;36611;51.638;5.784;2022-12-18T06:51:17;26.75;;;15.82;;
48847;SDS011;36611;51.638;5.784;2022-12-18T06:53:47;22.58;;;14.32;;
48847;SDS011;36611;51.638;5.784;2022-12-18T06:56:14;25.77;;;15.55;;
48847;SDS011;36611;51.638;5.784;2022-12-18T06:58:41;23.38;;;15.18;;
48847;SDS011;36611;51.638;5.784;2022-12-18T07:01:09;26.13;;;15.45;;
48847;SDS011;36611;51.638;5.784;2022-12-18T07:03:37;26.60;;;15.65;;
48847;SDS011;36611;51.638;5.784;2022-12-18T07:06:06;24.70;;;15.43;;
48847;SDS011;36611;51.638;5.784;2022-12-18T07:08:32;23.20;;;15.15;;
48847;SDS011;36611;51.638;5.784;2022-12-18T07:11:02;24.52;;;15.35;;
48847;SDS011;36611;51.638;5.784;2022-12-18T07:13:29;27.63;;;15.48;;
48847;SDS011;36611;51.638;5.784;2022-12-18T07:16:02;23.83;;;14.88;;
48847;SDS011;36611;51.638;5.784;2022-12-18T07:18:34;25.70;;;15.55;;
48847;SDS011;36611;51.638;5.784;2022-12-18T07:21:07;23.08;;;14.63;;
48847;SDS011;36611;51.638;5.784;2022-12-18T07:23:35;25.50;;;16.20;;
48847;SDS011;36611;51.638;5.784;2022-12-18T07:26:03;25.95;;;16.10;;
48847;SDS011;36611;51.638;5.784;2022-12-18T07:28:31;25.30;;;16.17;;
48847;SDS011;36611;51.638;5.784;2022-12-18T07:31:02;23.20;;;15.15;;
48847;SDS011;36611;51.638;5.784;2022-12-18T07:33:32;26.27;;;15.02;;
48847;SDS011;36611;51.638;5.784;2022-12-18T07:36:00;25.17;;;15.13;;
48847;SDS011;36611;51.638;5.784;2022-12-18T07:38:27;25.23;;;15.32;;
48847;SDS011;36611;51.638;5.784;2022-12-18T07:40:59;23.33;;;15.05;;
48847;SDS011;36611;51.638;5.784;2022-12-18T07:43:31;21.38;;;14.30;;
48847;SDS011;36611;51.638;5.784;2022-12-18T07:46:01;25.20;;;15.27;;
48847;SDS011;36611;51.638;5.784;2022-12-18T07:48:28;22.80;;;14.77;;
48847;SDS011;36611;51.638;5.784;2022-12-18T07:50:59;26.27;;;15.63;;
48847;SDS011;36611;51.638;5.784;2022-12-18T07:53:26;25.73;;;15.93;;
48847;SDS011;36611;51.638;5.784;2022-12-18T07:56:00;28.13;;;15.80;;
48847;SDS011;36611;51.638;5.784;2022-12-18T07:58:49;24.10;;;14.98;;
48847;SDS011;36611;51.638;5.784;2022-12-18T08:01:15;24.80;;;14.45;;
48847;SDS011;36611;51.638;5.784;2022-12-18T08:03:42;23.60;;;14.50;;
48847;SDS011;36611;51.638;5.784;2022-12-18T08:06:09;24.30;;;15.32;;
48847;SDS011;36611;51.638;5.784;2022-12-18T08:08:36;25.25;;;15.23;;
48847;SDS011;36611;51.638;5.784;2022-12-18T08:11:03;26.50;;;16.50;;
48847;SDS011;36611;51.638;5.784;2022-12-18T08:13:30;25.08;;;15.85;;
48847;SDS011;36611;51.638;5.784;2022-12-18T08:15:57;26.45;;;16.20;;
48847;SDS011;36611;51.638;5.784;2022-12-18T08:18:28;25.70;;;16.23;;
48847;SDS011;36611;51.638;5.784;2022-12-18T08:20:55;25.83;;;16.70;;
48847;SDS011;36611;51.638;5.784;2022-12-18T08:23:22;25.73;;;15.90;;
48847;SDS011;36611;51.638;5.784;2022-12-18T08:25:53;27.88;;;17.40;;
48847;SDS011;36611;51.638;5.784;2022-12-18T08:28:20;23.23;;;16.10;;
48847;SDS011;36611;51.638;5.784;2022-12-18T08:30:50;24.35;;;15.95;;
48847;SDS011;36611;51.638;5.784;2022-12-18T08:33:18;26.08;;;16.23;;
48847;SDS011;36611;51.638;5.784;2022-12-18T08:35:45;26.02;;;15.80;;
48847;SDS011;36611;51.638;5.784;2022-12-18T08:38:11;24.55;;;16.10;;
48847;SDS011;36611;51.638;5.784;2022-12-18T08:40:38;24.83;;;16.30;;
48847;SDS011;36611;51.638;5.784;2022-12-18T08:43:04;28.92;;;17.05;;
48847;SDS011;36611;51.638;5.784;2022-12-18T08:45:50;24.35;;;16.67;;
48847;SDS011;36611;51.638;5.784;2022-12-18T08:48:17;26.40;;;16.08;;
48847;SDS011;36611;51.638;5.784;2022-12-18T08:50:54;25.13;;;16.63;;
48847;SDS011;36611;51.638;5.784;2022-12-18T08:53:25;23.65;;;15.80;;
48847;SDS011;36611;51.638;5.784;2022-12-18T08:56:00;24.58;;;16.63;;
48847;SDS011;36611;51.638;5.784;2022-12-18T08:58:27;24.92;;;16.15;;
48847;SDS011;36611;51.638;5.784;2022-12-18T09:00:54;26.60;;;16.10;;
48847;SDS011;36611;51.638;5.784;2022-12-18T09:03:20;24.42;;;15.75;;
48847;SDS011;36611;51.638;5.784;2022-12-18T09:05:48;22.27;;;15.45;;
48847;SDS011;36611;51.638;5.784;2022-12-18T09:08:15;25.30;;;15.95;;
48847;SDS011;36611;51.638;5.784;2022-12-18T09:10:42;25.40;;;15.95;;
48847;SDS011;36611;51.638;5.784;2022-12-18T09:13:10;23.30;;;15.25;;
48847;SDS011;36611;51.638;5.784;2022-12-18T09:15:55;23.58;;;15.80;;
48847;SDS011;36611;51.638;5.784;2022-12-18T09:18:23;22.73;;;15.27;;
48847;SDS011;36611;51.638;5.784;2022-12-18T09:20:50;24.30;;;16.35;;
48847;SDS011;36611;51.638;5.784;2022-12-18T09:23:18;23.30;;;16.15;;
48847;SDS011;36611;51.638;5.784;2022-12-18T09:25:46;23.25;;;15.82;;
48847;SDS011;36611;51.638;5.784;2022-12-18T09:28:13;25.92;;;16.35;;
48847;SDS011;36611;51.638;5.784;2022-12-18T09:30:41;25.52;;;16.02;;
48847;SDS011;36611;51.638;5.784;2022-12-18T09:33:10;24.65;;;15.48;;
48847;SDS011;36611;51.638;5.784;2022-12-18T09:35:37;23.88;;;16.20;;
48847;SDS011;36611;51.638;5.784;2022-12-18T09:38:05;26.77;;;16.17;;
48847;SDS011;36611;51.638;5.784;2022-12-18T09:40:51;24.27;;;15.65;;
48847;SDS011;36611;51.638;5.784;2022-12-18T09:43:22;26.83;;;16.60;;
48847;SDS011;36611;51.638;5.784;2022-12-18T09:45:55;20.67;;;14.80;;
48847;SDS011;36611;51.638;5.784;2022-12-18T09:48:27;22.25;;;15.27;;
48847;SDS011;36611;51.638;5.784;2022-12-18T09:50:58;24.02;;;16.45;;
48847;SDS011;36611;51.638;5.784;2022-12-18T09:53:30;24.63;;;16.98;;
48847;SDS011;36611;51.638;5.784;2022-12-18T09:56:01;27.83;;;17.30;;
48847;SDS011;36611;51.638;5.784;2022-12-18T10:01:01;26.60;;;16.75;;
48847;SDS011;36611;51.638;5.784;2022-12-18T10:03:27;27.38;;;16.88;;
48847;SDS011;36611;51.638;5.784;2022-12-18T10:08:53;24.83;;;15.90;;
48847;SDS011;36611;51.638;5.784;2022-12-18T10:14:03;25.50;;;15.60;;
48847;SDS011;36611;51.638;5.784;2022-12-18T10:19:37;23.70;;;15.15;;
48847;SDS011;36611;51.638;5.784;2022-12-18T10:25:25;22.23;;;14.90;;
48847;SDS011;36611;51.638;5.784;2022-12-18T10:28:13;21.42;;;14.15;;
48847;SDS011;36611;51.638;5.784;2022-12-18T10:30:41;23.45;;;14.88;;
48847;SDS011;36611;51.638;5.784;2022-12-18T10:33:10;25.70;;;15.45;;
48847;SDS011;36611;51.638;5.784;2022-12-18T10:35:40;25.13;;;15.35;;
48847;SDS011;36611;51.638;5.784;2022-12-18T10:40:54;22.55;;;15.60;;
48847;SDS011;36611;51.638;5.784;2022-12-18T10:43:29;23.58;;;14.85;;
48847;SDS011;36611;51.638;5.784;2022-12-18T10:48:29;21.20;;;14.07;;
48847;SDS011;36611;51.638;5.784;2022-12-18T10:50:57;19.75;;;14.85;;
48847;SDS011;36611;51.638;5.784;2022-12-18T10:53:37;21.38;;;15.02;;
48847;SDS011;36611;51.638;5.784;2022-12-18T10:56:08;22.83;;;14.68;;
48847;SDS011;36611;51.638;5.784;2022-12-18T10:58:36;23.83;;;15.43;;
48847;SDS011;36611;51.638;5.784;2022-12-18T11:01:06;22.58;;;14.73;;
48847;SDS011;36611;51.638;5.784;2022-12-18T11:03:45;20.20;;;14.65;;
48847;SDS011;36611;51.638;5.784;2022-12-18T11:06:27;22.23;;;14.77;;
48847;SDS011;36611;51.638;5.784;2022-12-18T11:08:59;23.20;;;14.48;;
48847;SDS011;36611;51.638;5.784;2022-12-18T11:11:51;23.80;;;14.30;;
48847;SDS011;36611;51.638;5.784;2022-12-18T11:14:24;21.20;;;14.10;;
48847;SDS011;36611;51.638;5.784;2022-12-18T11:16:53;20.60;;;14.50;;
48847;SDS011;36611;51.638;5.784;2022-12-18T11:19:41;22.85;;;14.88;;
48847;SDS011;36611;51.638;5.784;2022-12-18T11:24:56;21.80;;;14.63;;
48847;SDS011;36611;51.638;5.784;2022-12-18T11:27:53;22.38;;;15.23;;
48847;SDS011;36611;51.638;5.784;2022-12-18T11:30:26;22.50;;;14.68;;
48847;SDS011;36611;51.638;5.784;2022-12-18T11:33:05;23.35;;;14.70;;
48847;SDS011;36611;51.638;5.784;2022-12-18T11:35:58;21.02;;;14.95;;
48847;SDS011;36611;51.638;5.784;2022-12-18T11:38:31;23.98;;;15.73;;
48847;SDS011;36611;51.638;5.784;2022-12-18T11:43:48;22.60;;;15.50;;
48847;SDS011;36611;51.638;5.784;2022-12-18T11:49:22;21.98;;;14.80;;
48847;SDS011;36611;51.638;5.784;2022-12-18T11:54:27;24.85;;;15.23;;
48847;SDS011;36611;51.638;5.784;2022-12-18T12:07:44;22.58;;;15.90;;
48847;SDS011;36611;51.638;5.784;2022-12-18T12:19:02;26.38;;;15.73;;
48847;SDS011;36611;51.638;5.784;2022-12-18T12:21:42;21.98;;;14.18;;
48847;SDS011;36611;51.638;5.784;2022-12-18T12:30:08;21.63;;;14.70;;
48847;SDS011;36611;51.638;5.784;2022-12-18T12:35:36;21.20;;;14.38;;
48847;SDS011;36611;51.638;5.784;2022-12-18T12:40:43;22.75;;;15.68;;
48847;SDS011;36611;51.638;5.784;2022-12-18T12:43:35;22.90;;;15.55;;
48847;SDS011;36611;51.638;5.784;2022-12-18T12:46:16;23.75;;;15.90;;
48847;SDS011;36611;51.638;5.784;2022-12-18T12:48:48;23.27;;;15.00;;
48847;SDS011;36611;51.638;5.784;2022-12-18T12:51:19;23.75;;;15.88;;
48847;SDS011;36611;51.638;5.784;2022-12-18T12:53:48;23.27;;;14.52;;
48847;SDS011;36611;51.638;5.784;2022-12-18T12:56:17;24.13;;;15.75;;
48847;SDS011;36611;51.638;5.784;2022-12-18T13:06:43;22.92;;;15.90;;
48847;SDS011;36611;51.638;5.784;2022-12-18T13:10:11;19.73;;;14.73;;
48847;SDS011;36611;51.638;5.784;2022-12-18T13:15:29;22.98;;;16.05;;
48847;SDS011;36611;51.638;5.784;2022-12-18T13:18:05;19.88;;;14.82;;
48847;SDS011;36611;51.638;5.784;2022-12-18T13:20:37;23.27;;;15.80;;
48847;SDS011;36611;51.638;5.784;2022-12-18T13:34:15;23.58;;;15.77;;
48847;SDS011;36611;51.638;5.784;2022-12-18T13:39:58;22.70;;;15.60;;
48847;SDS011;36611;51.638;5.784;2022-12-18T13:42:34;22.90;;;15.02;;
48847;SDS011;36611;51.638;5.784;2022-12-18T13:45:36;23.42;;;15.70;;
48847;SDS011;36611;51.638;5.784;2022-12-18T13:48:12;24.63;;;15.70;;
48847;SDS011;36611;51.638;5.784;2022-12-18T13:50:42;24.63;;;15.27;;
48847;SDS011;36611;51.638;5.784;2022-12-18T13:53:16;22.58;;;15.48;;
48847;SDS011;36611;51.638;5.784;2022-12-18T13:55:52;19.63;;;14.88;;
48847;SDS011;36611;51.638;5.784;2022-12-18T13:58:19;21.75;;;16.13;;
48847;SDS011;36611;51.638;5.784;2022-12-18T14:00:46;22.50;;;15.18;;
48847;SDS011;36611;51.638;5.784;2022-12-18T14:03:17;27.05;;;16.98;;
48847;SDS011;36611;51.638;5.784;2022-12-18T14:08:37;23.43;;;16.23;;
48847;SDS011;36611;51.638;5.784;2022-12-18T14:11:07;23.67;;;16.40;;
48847;SDS011;36611;51.638;5.784;2022-12-18T14:13:44;23.60;;;15.73;;
48847;SDS011;36611;51.638;5.784;2022-12-18T14:16:14;26.70;;;16.38;;
48847;SDS011;36611;51.638;5.784;2022-12-18T14:18:48;23.15;;;15.77;;
48847;SDS011;36611;51.638;5.784;2022-12-18T14:21:27;26.30;;;17.00;;
48847;SDS011;36611;51.638;5.784;2022-12-18T14:26:45;25.35;;;15.55;;
48847;SDS011;36611;51.638;5.784;2022-12-18T14:29:25;23.70;;;15.68;;
48847;SDS011;36611;51.638;5.784;2022-12-18T14:32:04;19.58;;;15.27;;
48847;SDS011;36611;51.638;5.784;2022-12-18T14:34:45;23.88;;;16.02;;
48847;SDS011;36611;51.638;5.784;2022-12-18T14:37:14;25.15;;;15.65;;
48847;SDS011;36611;51.638;5.784;2022-12-18T14:42:39;23.58;;;16.50;;
48847;SDS011;36611;51.638;5.784;2022-12-18T14:48:11;25.10;;;15.48;;
48847;SDS011;36611;51.638;5.784;2022-12-18T14:50:56;24.13;;;15.57;;
48847;SDS011;36611;51.638;5.784;2022-12-18T14:53:33;22.40;;;14.90;;
48847;SDS011;36611;51.638;5.784;2022-12-18T14:56:00;26.30;;;15.57;;
48847;SDS011;36611;51.638;5.784;2022-12-18T14:58:28;24.65;;;16.25;;
48847;SDS011;36611;51.638;5.784;2022-12-18T15:00:55;23.88;;;16.00;;
48847;SDS011;36611;51.638;5.784;2022-12-18T15:03:22;23.25;;;16.50;;
48847;SDS011;36611;51.638;5.784;2022-12-18T15:05:48;26.23;;;16.92;;
48847;SDS011;36611;51.638;5.784;2022-12-18T15:14:30;24.33;;;16.33;;
48847;SDS011;36611;51.638;5.784;2022-12-18T15:17:02;24.05;;;16.30;;
48847;SDS011;36611;51.638;5.784;2022-12-18T15:19:41;24.52;;;16.52;;
48847;SDS011;36611;51.638;5.784;2022-12-18T15:22:24;23.95;;;17.05;;
48847;SDS011;36611;51.638;5.784;2022-12-18T15:24:53;24.88;;;16.52;;
48847;SDS011;36611;51.638;5.784;2022-12-18T15:27:22;24.85;;;16.83;;
48847;SDS011;36611;51.638;5.784;2022-12-18T15:32:34;23.92;;;16.88;;
48847;SDS011;36611;51.638;5.784;2022-12-18T15:35:07;26.58;;;17.45;;
48847;SDS011;36611;51.638;5.784;2022-12-18T15:37:40;24.15;;;16.65;;
48847;SDS011;36611;51.638;5.784;2022-12-18T15:40:08;25.00;;;16.38;;
48847;SDS011;36611;51.638;5.784;2022-12-18T15:42:39;28.17;;;17.45;;
48847;SDS011;36611;51.638;5.784;2022-12-18T15:45:24;24.48;;;16.92;;
48847;SDS011;36611;51.638;5.784;2022-12-18T15:47:51;26.75;;;17.58;;
48847;SDS011;36611;51.638;5.784;2022-12-18T15:50:17;28.35;;;18.08;;
48847;SDS011;36611;51.638;5.784;2022-12-18T15:52:45;27.00;;;18.98;;
48847;SDS011;36611;51.638;5.784;2022-12-18T15:55:14;26.23;;;17.70;;
48847;SDS011;36611;51.638;5.784;2022-12-18T15:58:02;25.77;;;17.48;;
48847;SDS011;36611;51.638;5.784;2022-12-18T16:00:29;26.70;;;18.02;;
48847;SDS011;36611;51.638;5.784;2022-12-18T16:02:56;29.50;;;18.35;;
48847;SDS011;36611;51.638;5.784;2022-12-18T16:05:23;27.50;;;18.90;;
48847;SDS011;36611;51.638;5.784;2022-12-18T16:07:50;30.45;;;19.23;;
48847;SDS011;36611;51.638;5.784;2022-12-18T16:10:16;26.05;;;18.38;;
48847;SDS011;36611;51.638;5.784;2022-12-18T16:12:43;31.13;;;19.48;;
48847;SDS011;36611;51.638;5.784;2022-12-18T16:15:10;29.85;;;18.90;;
48847;SDS011;36611;51.638;5.784;2022-12-18T16:17:43;27.60;;;18.77;;
48847;SDS011;36611;51.638;5.784;2022-12-18T16:20:17;30.60;;;19.17;;
48847;SDS011;36611;51.638;5.784;2022-12-18T16:22:45;28.75;;;18.75;;
48847;SDS011;36611;51.638;5.784;2022-12-18T16:25:21;28.48;;;17.98;;
48847;SDS011;36611;51.638;5.784;2022-12-18T16:30:18;27.75;;;18.70;;
48847;SDS011;36611;51.638;5.784;2022-12-18T16:32:48;30.33;;;18.45;;
48847;SDS011;36611;51.638;5.784;2022-12-18T16:35:15;29.63;;;19.00;;
48847;SDS011;36611;51.638;5.784;2022-12-18T16:37:43;28.27;;;19.38;;
48847;SDS011;36611;51.638;5.784;2022-12-18T16:40:11;29.20;;;19.13;;
48847;SDS011;36611;51.638;5.784;2022-12-18T16:42:41;29.48;;;19.23;;
48847;SDS011;36611;51.638;5.784;2022-12-18T16:45:14;24.92;;;18.52;;
48847;SDS011;36611;51.638;5.784;2022-12-18T16:47:44;30.27;;;19.65;;
48847;SDS011;36611;51.638;5.784;2022-12-18T16:50:11;28.83;;;19.67;;
48847;SDS011;36611;51.638;5.784;2022-12-18T16:52:38;28.88;;;19.67;;
48847;SDS011;36611;51.638;5.784;2022-12-18T16:55:04;29.60;;;19.05;;
48847;SDS011;36611;51.638;5.784;2022-12-18T16:57:31;29.75;;;19.85;;
48847;SDS011;36611;51.638;5.784;2022-12-18T16:59:58;29.42;;;18.85;;